sensor_id;sensor_type;location;lat;lon;timestamp;pressure;altitude;pressure_sealevel;temperature;humidity
19789;BME280;10054;59.332;18.244;2024-01-30T00:01:42;102023.09;;;2.42;100.00
19789;BME280;10054;59.332;18.244;2024-01-30T00:04:11;102019.62;;;2.41;100.00
19789;BME280;10054;59.332;18.244;2024-01-30T00:06:40;102011.81;;;2.40;100.00
19789;BME280;10054;59.332;18.244;2024-01-30T00:09:08;102013.56;;;2.38;100.00
19789;BME280;10054;59.332;18.244;2024-01-30T00:11:38;102005.36;;;2.32;100.00
19789;BME280;10054;59.332;18.244;2024-01-30T00:14:07;102002.77;;;2.29;100.00
19789;BME280;10054;59.332;18.244;2024-01-30T00:16:36;101998.02;;;2.25;100.00
19789;BME280;10054;59.332;18.244;2024-01-30T00:19:05;101994.56;;;2.23;100.00
19789;BME280;10054;59.332;18.244;2024-01-30T00:21:35;102002.00;;;2.18;100.00
19789;BME280;10054;59.332;18.244;2024-01-30T00:24:04;102006.80;;;2.12;100.00
19789;BME280;10054;59.332;18.244;2024-01-30T00:26:33;102004.22;;;2.09;100.00
19789;BME280;10054;59.332;18.244;2024-01-30T00:29:02;102006.39;;;2.10;100.00
19789;BME280;10054;59.332;18.244;2024-01-30T00:31:30;102009.00;;;2.07;100.00
19789;BME280;10054;59.332;18.244;2024-01-30T00:33:59;102009.45;;;2.05;100.00
19789;BME280;10054;59.332;18.244;2024-01-30T00:36:28;102011.19;;;2.04;100.00
19789;BME280;10054;59.332;18.244;2024-01-30T00:38:57;102012.45;;;2.10;100.00
19789;BME280;10054;59.332;18.244;2024-01-30T00:41:26;102007.30;;;2.01;100.00
19789;BME280;10054;59.332;18.244;2024-01-30T00:43:56;102011.23;;;1.93;100.00
19789;BME280;10054;59.332;18.244;2024-01-30T00:46:25;102012.14;;;1.85;100.00
19789;BME280;10054;59.332;18.244;2024-01-30T00:48:54;102013.04;;;1.78;100.00
19789;BME280;10054;59.332;18.244;2024-01-30T00:51:22;102012.20;;;1.70;100.00
19789;BME280;10054;59.332;18.244;2024-01-30T00:53:51;102011.79;;;1.64;100.00
19789;BME280;10054;59.332;18.244;2024-01-30T00:56:21;102004.00;;;1.61;100.00
19789;BME280;10054;59.332;18.244;2024-01-30T00:58:51;102004.44;;;1.57;100.00
19789;BME280;10054;59.332;18.244;2024-01-30T01:01:21;102009.22;;;1.55;100.00
19789;BME280;10054;59.332;18.244;2024-01-30T01:03:50;102006.63;;;1.53;100.00
19789;BME280;10054;59.332;18.244;2024-01-30T01:06:19;102012.69;;;1.54;100.00
19789;BME280;10054;59.332;18.244;2024-01-30T01:08:47;102014.86;;;1.51;100.00
19789;BME280;10054;59.332;18.244;2024-01-30T01:11:18;102016.64;;;1.48;100.00
19789;BME280;10054;59.332;18.244;2024-01-30T01:13:46;102011.02;;;1.44;100.00
19789;BME280;10054;59.332;18.244;2024-01-30T01:16:15;102008.00;;;1.38;100.00
19789;BME280;10054;59.332;18.244;2024-01-30T01:18:44;102009.30;;;1.37;100.00
19789;BME280;10054;59.332;18.244;2024-01-30T01:21:13;102014.08;;;1.29;100.00
19789;BME280;10054;59.332;18.244;2024-01-30T01:23:41;102012.36;;;1.25;100.00
19789;BME280;10054;59.332;18.244;2024-01-30T01:26:10;102005.42;;;1.24;100.00
19789;BME280;10054;59.332;18.244;2024-01-30T01:28:40;102010.60;;;1.35;100.00
19789;BME280;10054;59.332;18.244;2024-01-30T01:31:09;102008.84;;;1.48;100.00
19789;BME280;10054;59.332;18.244;2024-01-30T01:33:38;102012.76;;;1.40;100.00
19789;BME280;10054;59.332;18.244;2024-01-30T01:36:07;102008.88;;;1.33;100.00
19789;BME280;10054;59.332;18.244;2024-01-30T01:38:36;102008.45;;;1.25;100.00
19789;BME280;10054;59.332;18.244;2024-01-30T01:41:04;102007.59;;;1.23;100.00
19789;BME280;10054;59.332;18.244;2024-01-30T01:43:33;102011.06;;;1.19;100.00
19789;BME280;10054;59.332;18.244;2024-01-30T01:46:01;102004.57;;;1.16;100.00
19789;BME280;10054;59.332;18.244;2024-01-30T01:48:31;102000.25;;;1.14;100.00
19789;BME280;10054;59.332;18.244;2024-01-30T01:51:00;101998.95;;;1.11;100.00
19789;BME280;10054;59.332;18.244;2024-01-30T01:53:29;102005.89;;;1.04;100.00
19789;BME280;10054;59.332;18.244;2024-01-30T01:55:58;102007.20;;;0.95;100.00
19789;BME280;10054;59.332;18.244;2024-01-30T01:58:28;102010.66;;;0.91;100.00
19789;BME280;10054;59.332;18.244;2024-01-30T02:00:58;102010.66;;;0.91;100.00
19789;BME280;10054;59.332;18.244;2024-01-30T02:03:27;102006.77;;;0.88;100.00
19789;BME280;10054;59.332;18.244;2024-01-30T02:05:56;102003.73;;;0.87;100.00
19789;BME280;10054;59.332;18.244;2024-01-30T02:08:26;102005.91;;;0.83;100.00
19789;BME280;10054;59.332;18.244;2024-01-30T02:10:55;101999.41;;;0.81;100.00
19789;BME280;10054;59.332;18.244;2024-01-30T02:13:24;101998.55;;;0.79;100.00
19789;BME280;10054;59.332;18.244;2024-01-30T02:15:52;101987.32;;;0.74;100.00
19789;BME280;10054;59.332;18.244;2024-01-30T02:18:22;101993.38;;;0.73;100.00
19789;BME280;10054;59.332;18.244;2024-01-30T02:20:54;101999.44;;;0.72;100.00
19789;BME280;10054;59.332;18.244;2024-01-30T02:23:29;101999.44;;;0.71;100.00
19789;BME280;10054;59.332;18.244;2024-01-30T02:25:55;101995.11;;;0.68;100.00
19789;BME280;10054;59.332;18.244;2024-01-30T02:28:24;101989.92;;;0.63;100.00
19789;BME280;10054;59.332;18.244;2024-01-30T02:30:53;101992.95;;;0.74;100.00
19789;BME280;10054;59.332;18.244;2024-01-30T02:33:22;101985.55;;;0.79;100.00
19789;BME280;10054;59.332;18.244;2024-01-30T02:35:51;101985.98;;;0.76;100.00
19789;BME280;10054;59.332;18.244;2024-01-30T02:38:19;101983.42;;;0.71;100.00
19789;BME280;10054;59.332;18.244;2024-01-30T02:40:48;101986.89;;;0.69;100.00
19789;BME280;10054;59.332;18.244;2024-01-30T02:43:17;101986.02;;;0.62;100.00
19789;BME280;10054;59.332;18.244;2024-01-30T02:45:46;101992.52;;;0.59;100.00
19789;BME280;10054;59.332;18.244;2024-01-30T02:48:15;101986.88;;;0.53;100.00
19789;BME280;10054;59.332;18.244;2024-01-30T02:50:44;101989.48;;;0.52;100.00
19789;BME280;10054;59.332;18.244;2024-01-30T02:53:14;101984.28;;;0.50;100.00
19789;BME280;10054;59.332;18.244;2024-01-30T02:55:43;101993.36;;;0.46;100.00
19789;BME280;10054;59.332;18.244;2024-01-30T02:58:11;101989.47;;;0.44;100.00
19789;BME280;10054;59.332;18.244;2024-01-30T03:00:40;101991.20;;;0.41;100.00
19789;BME280;10054;59.332;18.244;2024-01-30T03:03:09;101989.46;;;0.40;100.00
19789;BME280;10054;59.332;18.244;2024-01-30T03:05:38;101987.30;;;0.41;100.00
19789;BME280;10054;59.332;18.244;2024-01-30T03:08:07;101990.77;;;0.38;100.00
19789;BME280;10054;59.332;18.244;2024-01-30T03:10:36;101992.92;;;0.39;100.00
19789;BME280;10054;59.332;18.244;2024-01-30T03:13:05;101985.56;;;0.38;100.00
19789;BME280;10054;59.332;18.244;2024-01-30T03:15:34;101981.23;;;0.36;100.00
19789;BME280;10054;59.332;18.244;2024-01-30T03:18:03;101987.30;;;0.36;100.00
19789;BME280;10054;59.332;18.244;2024-01-30T03:20:32;101991.19;;;0.33;100.00
19789;BME280;10054;59.332;18.244;2024-01-30T03:23:01;102001.99;;;0.29;100.00
19789;BME280;10054;59.332;18.244;2024-01-30T03:25:30;102006.75;;;0.27;100.00
19789;BME280;10054;59.332;18.244;2024-01-30T03:27:59;102005.88;;;0.23;100.00
19789;BME280;10054;59.332;18.244;2024-01-30T03:30:28;102004.14;;;0.22;100.00
19789;BME280;10054;59.332;18.244;2024-01-30T03:32:56;102005.44;;;0.22;100.00
19789;BME280;10054;59.332;18.244;2024-01-30T03:35:25;102008.03;;;0.22;100.00
19789;BME280;10054;59.332;18.244;2024-01-30T03:37:54;102007.59;;;0.18;100.00
19789;BME280;10054;59.332;18.244;2024-01-30T03:40:23;102016.25;;;0.20;100.00
19789;BME280;10054;59.332;18.244;2024-01-30T03:42:51;102009.75;;;0.17;100.00
19789;BME280;10054;59.332;18.244;2024-01-30T03:45:26;102004.98;;;0.14;100.00
19789;BME280;10054;59.332;18.244;2024-01-30T03:47:55;102000.66;;;0.11;100.00
19789;BME280;10054;59.332;18.244;2024-01-30T03:50:25;102006.70;;;0.10;100.00
19789;BME280;10054;59.332;18.244;2024-01-30T03:52:55;102007.15;;;0.14;100.00
19789;BME280;10054;59.332;18.244;2024-01-30T03:55:25;102010.19;;;0.21;100.00
19789;BME280;10054;59.332;18.244;2024-01-30T03:57:54;102010.20;;;0.24;100.00
19789;BME280;10054;59.332;18.244;2024-01-30T04:00:23;102010.17;;;0.14;100.00
19789;BME280;10054;59.332;18.244;2024-01-30T04:02:51;102010.59;;;0.09;100.00
19789;BME280;10054;59.332;18.244;2024-01-30T04:05:20;102014.91;;;0.04;100.00
19789;BME280;10054;59.332;18.244;2024-01-30T04:07:49;102022.27;;;-0.01;100.00
19789;BME280;10054;59.332;18.244;2024-01-30T04:10:18;102014.06;;;0.00;100.00
19789;BME280;10054;59.332;18.244;2024-01-30T04:12:47;102014.03;;;0.02;100.00
19789;BME280;10054;59.332;18.244;2024-01-30T04:15:16;102020.52;;;0.05;100.00
19789;BME280;10054;59.332;18.244;2024-01-30T04:17:45;102020.09;;;0.04;100.00
19789;BME280;10054;59.332;18.244;2024-01-30T04:20:17;102024.84;;;0.04;100.00
19789;BME280;10054;59.332;18.244;2024-01-30T04:22:46;102025.72;;;0.05;100.00
19789;BME280;10054;59.332;18.244;2024-01-30T04:25:15;102026.59;;;0.07;100.00
19789;BME280;10054;59.332;18.244;2024-01-30T04:27:44;102017.95;;;0.09;100.00
19789;BME280;10054;59.332;18.244;2024-01-30T04:30:13;102020.55;;;0.14;100.00
19789;BME280;10054;59.332;18.244;2024-01-30T04:32:42;102024.02;;;0.17;100.00
19789;BME280;10054;59.332;18.244;2024-01-30T04:35:11;102022.73;;;0.19;100.00
19789;BME280;10054;59.332;18.244;2024-01-30T04:37:40;102011.92;;;0.19;100.00
19789;BME280;10054;59.332;18.244;2024-01-30T04:40:09;102017.55;;;0.22;100.00
19789;BME280;10054;59.332;18.244;2024-01-30T04:42:38;102021.45;;;0.23;100.00
19789;BME280;10054;59.332;18.244;2024-01-30T04:45:07;102024.47;;;0.23;100.00
19789;BME280;10054;59.332;18.244;2024-01-30T04:47:35;102023.18;;;0.26;100.00
19789;BME280;10054;59.332;18.244;2024-01-30T04:50:09;102021.45;;;0.26;100.00
19789;BME280;10054;59.332;18.244;2024-01-30T04:52:38;102016.70;;;0.27;100.00
19789;BME280;10054;59.332;18.244;2024-01-30T04:55:07;102014.10;;;0.29;100.00
19789;BME280;10054;59.332;18.244;2024-01-30T04:57:36;102009.78;;;0.31;100.00
19789;BME280;10054;59.332;18.244;2024-01-30T05:00:06;102007.64;;;0.40;100.00
19789;BME280;10054;59.332;18.244;2024-01-30T05:02:35;102003.76;;;0.53;100.00
19789;BME280;10054;59.332;18.244;2024-01-30T05:05:03;102004.62;;;0.51;100.00
19789;BME280;10054;59.332;18.244;2024-01-30T05:07:32;101997.26;;;0.46;100.00
19789;BME280;10054;59.332;18.244;2024-01-30T05:10:01;102002.45;;;0.40;100.00
19789;BME280;10054;59.332;18.244;2024-01-30T05:12:30;102004.17;;;0.38;100.00
19789;BME280;10054;59.332;18.244;2024-01-30T05:14:59;102004.16;;;0.33;100.00
19789;BME280;10054;59.332;18.244;2024-01-30T05:17:28;102008.05;;;0.27;100.00
19789;BME280;10054;59.332;18.244;2024-01-30T05:19:57;102007.60;;;0.23;100.00
19789;BME280;10054;59.332;18.244;2024-01-30T05:22:26;102008.03;;;0.19;100.00
19789;BME280;10054;59.332;18.244;2024-01-30T05:24:54;102007.16;;;0.20;100.00
19789;BME280;10054;59.332;18.244;2024-01-30T05:27:23;102015.38;;;0.20;100.00
19789;BME280;10054;59.332;18.244;2024-01-30T05:29:52;102008.45;;;0.16;100.00
19789;BME280;10054;59.332;18.244;2024-01-30T05:32:21;102008.02;;;0.18;100.00
19789;BME280;10054;59.332;18.244;2024-01-30T05:34:50;102011.05;;;0.20;100.00
19789;BME280;10054;59.332;18.244;2024-01-30T05:37:18;102011.50;;;0.24;100.00
19789;BME280;10054;59.332;18.244;2024-01-30T05:39:47;102015.39;;;0.24;100.00
19789;BME280;10054;59.332;18.244;2024-01-30T05:42:16;102014.09;;;0.26;100.00
19789;BME280;10054;59.332;18.244;2024-01-30T05:44:44;102014.96;;;0.25;100.00
19789;BME280;10054;59.332;18.244;2024-01-30T05:47:14;102013.66;;;0.25;100.00
19789;BME280;10054;59.332;18.244;2024-01-30T05:49:43;102011.50;;;0.23;100.00
19789;BME280;10054;59.332;18.244;2024-01-30T05:52:13;102008.91;;;0.24;100.00
19789;BME280;10054;59.332;18.244;2024-01-30T05:54:43;102004.14;;;0.22;100.00
19789;BME280;10054;59.332;18.244;2024-01-30T05:57:11;102003.70;;;0.20;100.00
19789;BME280;10054;59.332;18.244;2024-01-30T05:59:40;102008.89;;;0.17;100.00
19789;BME280;10054;59.332;18.244;2024-01-30T06:02:10;102010.17;;;0.15;100.00
19789;BME280;10054;59.332;18.244;2024-01-30T06:04:39;102004.98;;;0.14;100.00
19789;BME280;10054;59.332;18.244;2024-01-30T06:07:07;102008.45;;;0.17;100.00
19789;BME280;10054;59.332;18.244;2024-01-30T06:09:36;102002.42;;;0.26;100.00
19789;BME280;10054;59.332;18.244;2024-01-30T06:12:06;101999.84;;;0.40;100.00
19789;BME280;10054;59.332;18.244;2024-01-30T06:14:35;102001.58;;;0.42;100.00
19789;BME280;10054;59.332;18.244;2024-01-30T06:17:04;102008.06;;;0.36;100.00
19789;BME280;10054;59.332;18.244;2024-01-30T06:19:33;102010.21;;;0.29;100.00
19789;BME280;10054;59.332;18.244;2024-01-30T06:22:01;102007.17;;;0.23;100.00
19789;BME280;10054;59.332;18.244;2024-01-30T06:24:31;102004.99;;;0.17;100.00
19789;BME280;10054;59.332;18.244;2024-01-30T06:27:01;102000.66;;;0.11;100.00
19789;BME280;10054;59.332;18.244;2024-01-30T06:29:29;102004.54;;;0.10;100.00
19789;BME280;10054;59.332;18.244;2024-01-30T06:31:59;102010.16;;;0.11;100.00
19789;BME280;10054;59.332;18.244;2024-01-30T06:34:27;102006.72;;;0.15;100.00
19789;BME280;10054;59.332;18.244;2024-01-30T06:36:56;102006.29;;;0.17;100.00
19789;BME280;10054;59.332;18.244;2024-01-30T06:39:25;102001.11;;;0.20;100.00
19789;BME280;10054;59.332;18.244;2024-01-30T06:41:54;101996.80;;;0.23;100.00
19789;BME280;10054;59.332;18.244;2024-01-30T06:44:23;102000.25;;;0.25;100.00
19789;BME280;10054;59.332;18.244;2024-01-30T06:46:52;102002.42;;;0.29;100.00
19789;BME280;10054;59.332;18.244;2024-01-30T06:49:21;102003.30;;;0.32;100.00
19789;BME280;10054;59.332;18.244;2024-01-30T06:51:49;102006.33;;;0.33;100.00
19789;BME280;10054;59.332;18.244;2024-01-30T06:54:18;102000.70;;;0.32;100.00
19789;BME280;10054;59.332;18.244;2024-01-30T06:56:47;102002.43;;;0.32;100.00
19789;BME280;10054;59.332;18.244;2024-01-30T06:59:16;102000.27;;;0.33;100.00
19789;BME280;10054;59.332;18.244;2024-01-30T07:01:44;102003.73;;;0.35;100.00
19789;BME280;10054;59.332;18.244;2024-01-30T07:04:13;102003.73;;;0.37;100.00
19789;BME280;10054;59.332;18.244;2024-01-30T07:06:42;102005.90;;;0.36;100.00
19789;BME280;10054;59.332;18.244;2024-01-30T07:09:11;102013.69;;;0.39;100.00
19789;BME280;10054;59.332;18.244;2024-01-30T07:11:41;102009.80;;;0.42;100.00
19789;BME280;10054;59.332;18.244;2024-01-30T07:14:10;102004.19;;;0.47;100.00
19789;BME280;10054;59.332;18.244;2024-01-30T07:16:38;102009.39;;;0.57;100.00
19789;BME280;10054;59.332;18.244;2024-01-30T07:19:07;102010.69;;;0.63;100.00
19789;BME280;10054;59.332;18.244;2024-01-30T07:21:37;102006.80;;;0.65;100.00
19789;BME280;10054;59.332;18.244;2024-01-30T07:24:07;102010.69;;;0.63;100.00
19789;BME280;10054;59.332;18.244;2024-01-30T07:26:36;101995.97;;;0.59;100.00
19789;BME280;10054;59.332;18.244;2024-01-30T07:29:05;101993.81;;;0.57;100.00
19789;BME280;10054;59.332;18.244;2024-01-30T07:31:34;101992.94;;;0.54;100.00
19789;BME280;10054;59.332;18.244;2024-01-30T07:34:02;101987.75;;;0.52;100.00
19789;BME280;10054;59.332;18.244;2024-01-30T07:36:31;101986.02;;;0.53;100.00
19789;BME280;10054;59.332;18.244;2024-01-30T07:39:00;101985.58;;;0.53;100.00
19789;BME280;10054;59.332;18.244;2024-01-30T07:41:28;101986.88;;;0.55;100.00
19789;BME280;10054;59.332;18.244;2024-01-30T07:43:58;101985.59;;;0.58;100.00
19789;BME280;10054;59.332;18.244;2024-01-30T07:46:27;101982.55;;;0.57;100.00
19789;BME280;10054;59.332;18.244;2024-01-30T07:48:55;101991.21;;;0.60;100.00
19789;BME280;10054;59.332;18.244;2024-01-30T07:51:26;101991.22;;;0.63;100.00
19789;BME280;10054;59.332;18.244;2024-01-30T07:53:56;101990.78;;;0.67;100.00
19789;BME280;10054;59.332;18.244;2024-01-30T07:56:25;101995.98;;;0.72;100.00
19789;BME280;10054;59.332;18.244;2024-01-30T07:58:54;101987.72;;;0.75;100.00
19789;BME280;10054;59.332;18.244;2024-01-30T08:01:22;101974.73;;;0.78;100.00
19789;BME280;10054;59.332;18.244;2024-01-30T08:03:51;101977.33;;;0.81;100.00
19789;BME280;10054;59.332;18.244;2024-01-30T08:06:20;101977.33;;;0.84;100.00
19789;BME280;10054;59.332;18.244;2024-01-30T08:08:48;101974.72;;;0.96;100.00
19789;BME280;10054;59.332;18.244;2024-01-30T08:11:24;101977.31;;;0.99;100.00
19789;BME280;10054;59.332;18.244;2024-01-30T08:13:50;101978.61;;;0.98;100.00
19789;BME280;10054;59.332;18.244;2024-01-30T08:16:19;101973.86;;;0.93;100.00
19789;BME280;10054;59.332;18.244;2024-01-30T08:18:47;101970.83;;;0.89;100.00
19789;BME280;10054;59.332;18.244;2024-01-30T08:21:16;101972.56;;;0.87;100.00
19789;BME280;10054;59.332;18.244;2024-01-30T08:23:45;101964.34;;;0.86;100.00
19789;BME280;10054;59.332;18.244;2024-01-30T08:26:13;101961.31;;;0.82;100.00
19789;BME280;10054;59.332;18.244;2024-01-30T08:28:44;101960.88;;;0.79;100.00
19789;BME280;10054;59.332;18.244;2024-01-30T08:31:14;101956.55;;;0.77;100.00
19789;BME280;10054;59.332;18.244;2024-01-30T08:33:43;101953.95;;;0.77;100.00
19789;BME280;10054;59.332;18.244;2024-01-30T08:36:11;101950.05;;;0.78;100.00
19789;BME280;10054;59.332;18.244;2024-01-30T08:38:40;101948.33;;;0.80;100.00
19789;BME280;10054;59.332;18.244;2024-01-30T08:41:09;101949.19;;;0.82;100.00
19789;BME280;10054;59.332;18.244;2024-01-30T08:43:37;101950.48;;;0.82;100.00
19789;BME280;10054;59.332;18.244;2024-01-30T08:46:06;101952.65;;;0.84;100.00
19789;BME280;10054;59.332;18.244;2024-01-30T08:48:36;101945.28;;;0.87;100.00
19789;BME280;10054;59.332;18.244;2024-01-30T08:51:05;101952.64;;;0.92;100.00
19789;BME280;10054;59.332;18.244;2024-01-30T08:53:36;101958.26;;;0.97;100.00
19789;BME280;10054;59.332;18.244;2024-01-30T08:56:06;101953.05;;;1.04;100.00
19789;BME280;10054;59.332;18.244;2024-01-30T08:58:36;101955.20;;;1.13;100.00
19789;BME280;10054;59.332;18.244;2024-01-30T09:01:06;101960.35;;;1.31;100.00
19789;BME280;10054;59.332;18.244;2024-01-30T09:03:34;101955.56;;;1.40;100.00
19789;BME280;10054;59.332;18.244;2024-01-30T09:06:09;101963.34;;;1.43;100.00
19789;BME280;10054;59.332;18.244;2024-01-30T09:08:38;101965.52;;;1.44;100.00
19789;BME280;10054;59.332;18.244;2024-01-30T09:11:15;101963.78;;;1.43;100.00
19789;BME280;10054;59.332;18.244;2024-01-30T09:13:45;101964.22;;;1.42;100.00
19789;BME280;10054;59.332;18.244;2024-01-30T09:16:14;101970.72;;;1.42;100.00
19789;BME280;10054;59.332;18.244;2024-01-30T09:18:43;101971.58;;;1.43;100.00
19789;BME280;10054;59.332;18.244;2024-01-30T09:21:12;101963.34;;;1.45;100.00
19789;BME280;10054;59.332;18.244;2024-01-30T09:23:41;101965.94;;;1.46;100.00
19789;BME280;10054;59.332;18.244;2024-01-30T09:26:10;101966.37;;;1.47;100.00
19789;BME280;10054;59.332;18.244;2024-01-30T09:28:40;101959.43;;;1.48;100.00
19789;BME280;10054;59.332;18.244;2024-01-30T09:31:10;101956.36;;;1.50;100.00
19789;BME280;10054;59.332;18.244;2024-01-30T09:33:41;101956.34;;;1.53;100.00
19789;BME280;10054;59.332;18.244;2024-01-30T09:36:11;101960.23;;;1.56;100.00
19789;BME280;10054;59.332;18.244;2024-01-30T09:38:41;101951.55;;;1.58;100.00
19789;BME280;10054;59.332;18.244;2024-01-30T09:41:10;101943.73;;;1.61;100.00
19789;BME280;10054;59.332;18.244;2024-01-30T09:43:39;101939.83;;;1.64;100.00
19789;BME280;10054;59.332;18.244;2024-01-30T09:46:11;101942.84;;;1.67;100.00
19789;BME280;10054;59.332;18.244;2024-01-30T09:48:42;101935.47;;;1.68;100.00
19789;BME280;10054;59.332;18.244;2024-01-30T09:51:11;101931.12;;;1.72;100.00
19789;BME280;10054;59.332;18.244;2024-01-30T09:53:42;101932.86;;;1.71;100.00
19789;BME280;10054;59.332;18.244;2024-01-30T09:56:13;101929.81;;;1.73;100.00
19789;BME280;10054;59.332;18.244;2024-01-30T09:58:42;101937.61;;;1.75;100.00
19789;BME280;10054;59.332;18.244;2024-01-30T10:01:11;101931.95;;;1.78;100.00
19789;BME280;10054;59.332;18.244;2024-01-30T10:03:40;101930.62;;;1.84;100.00
19789;BME280;10054;59.332;18.244;2024-01-30T10:06:10;101917.53;;;1.96;100.00
19789;BME280;10054;59.332;18.244;2024-01-30T10:08:39;101916.22;;;2.00;100.00
19789;BME280;10054;59.332;18.244;2024-01-30T10:11:08;101917.07;;;2.02;100.00
19789;BME280;10054;59.332;18.244;2024-01-30T10:13:38;101915.75;;;2.05;100.00
19789;BME280;10054;59.332;18.244;2024-01-30T10:16:07;101917.47;;;2.07;100.00
19789;BME280;10054;59.332;18.244;2024-01-30T10:18:36;101910.98;;;2.04;100.00
19789;BME280;10054;59.332;18.244;2024-01-30T10:21:05;101911.86;;;2.02;100.00
19789;BME280;10054;59.332;18.244;2024-01-30T10:23:34;101909.25;;;2.03;100.00
19789;BME280;10054;59.332;18.244;2024-01-30T10:26:04;101909.23;;;2.06;100.00
19789;BME280;10054;59.332;18.244;2024-01-30T10:28:33;101913.12;;;2.08;100.00
19789;BME280;10054;59.332;18.244;2024-01-30T10:31:02;101908.34;;;2.09;100.00
19789;BME280;10054;59.332;18.244;2024-01-30T10:33:34;101912.67;;;2.11;100.00
19789;BME280;10054;59.332;18.244;2024-01-30T10:36:04;101907.45;;;2.13;100.00
19789;BME280;10054;59.332;18.244;2024-01-30T10:38:33;101897.89;;;2.15;100.00
19789;BME280;10054;59.332;18.244;2024-01-30T10:41:02;101897.87;;;2.16;100.00
19789;BME280;10054;59.332;18.244;2024-01-30T10:43:32;101890.94;;;2.17;100.00
19789;BME280;10054;59.332;18.244;2024-01-30T10:46:09;101893.09;;;2.19;100.00
19789;BME280;10054;59.332;18.244;2024-01-30T10:48:39;101902.17;;;2.22;100.00
19789;BME280;10054;59.332;18.244;2024-01-30T10:51:10;101890.04;;;2.21;100.00
19789;BME280;10054;59.332;18.244;2024-01-30T10:53:42;101891.34;;;2.19;100.00
19789;BME280;10054;59.332;18.244;2024-01-30T10:56:12;101897.00;;;2.17;100.00
19789;BME280;10054;59.332;18.244;2024-01-30T10:58:42;101893.98;;;2.16;100.00
19789;BME280;10054;59.332;18.244;2024-01-30T11:01:11;101883.56;;;2.16;100.00
19789;BME280;10054;59.332;18.244;2024-01-30T11:03:40;101880.09;;;2.16;100.00
19789;BME280;10054;59.332;18.244;2024-01-30T11:06:13;101873.59;;;2.16;100.00
19789;BME280;10054;59.332;18.244;2024-01-30T11:08:59;101871.41;;;2.17;100.00
19789;BME280;10054;59.332;18.244;2024-01-30T11:11:17;101857.94;;;2.19;100.00
19789;BME280;10054;59.332;18.244;2024-01-30T11:13:46;101849.70;;;2.19;100.00
19789;BME280;10054;59.332;18.244;2024-01-30T11:16:16;101846.66;;;2.20;100.00
19789;BME280;10054;59.332;18.244;2024-01-30T11:18:49;101849.25;;;2.21;100.00
19789;BME280;10054;59.332;18.244;2024-01-30T11:21:16;101849.19;;;2.24;100.00
19789;BME280;10054;59.332;18.244;2024-01-30T11:23:46;101846.11;;;2.29;100.00
19789;BME280;10054;59.332;18.244;2024-01-30T11:26:14;101848.17;;;2.41;100.00
19789;BME280;10054;59.332;18.244;2024-01-30T11:28:44;101842.02;;;2.49;100.00
19789;BME280;10054;59.332;18.244;2024-01-30T11:31:18;101842.40;;;2.55;100.00
19789;BME280;10054;59.332;18.244;2024-01-30T11:33:46;101835.01;;;2.56;100.00
19789;BME280;10054;59.332;18.244;2024-01-30T11:36:17;101833.72;;;2.54;100.00
19789;BME280;10054;59.332;18.244;2024-01-30T11:38:45;101828.55;;;2.51;100.00
19789;BME280;10054;59.332;18.244;2024-01-30T11:41:15;101837.23;;;2.50;100.00
19789;BME280;10054;59.332;18.244;2024-01-30T11:43:52;101834.63;;;2.50;100.00
19789;BME280;10054;59.332;18.244;2024-01-30T11:46:21;101825.95;;;2.50;100.00
19789;BME280;10054;59.332;18.244;2024-01-30T11:48:49;101826.41;;;2.48;100.00
19789;BME280;10054;59.332;18.244;2024-01-30T11:51:18;101817.71;;;2.49;100.00
19789;BME280;10054;59.332;18.244;2024-01-30T11:53:50;101815.50;;;2.53;100.00
19789;BME280;10054;59.332;18.244;2024-01-30T11:56:19;101812.00;;;2.55;100.00
19789;BME280;10054;59.332;18.244;2024-01-30T11:58:48;101812.87;;;2.56;100.00
19789;BME280;10054;59.332;18.244;2024-01-30T12:01:19;101805.93;;;2.55;100.00
19789;BME280;10054;59.332;18.244;2024-01-30T12:03:51;101810.69;;;2.57;100.00
19789;BME280;10054;59.332;18.244;2024-01-30T12:06:21;101807.63;;;2.59;100.00
19789;BME280;10054;59.332;18.244;2024-01-30T12:09:00;101806.73;;;2.61;100.00
19789;BME280;10054;59.332;18.244;2024-01-30T12:11:31;101808.88;;;2.63;100.00
19789;BME280;10054;59.332;18.244;2024-01-30T12:14:00;101802.34;;;2.65;100.00
19789;BME280;10054;59.332;18.244;2024-01-30T12:16:28;101798.42;;;2.67;100.00
19789;BME280;10054;59.332;18.244;2024-01-30T12:19:01;101793.64;;;2.68;100.00
19789;BME280;10054;59.332;18.244;2024-01-30T12:21:30;101795.34;;;2.70;100.00
19789;BME280;10054;59.332;18.244;2024-01-30T12:24:00;101796.61;;;2.73;100.00
19789;BME280;10054;59.332;18.244;2024-01-30T12:26:28;101790.50;;;2.76;100.00
19789;BME280;10054;59.332;18.244;2024-01-30T12:28:58;101793.52;;;2.78;100.00
19789;BME280;10054;59.332;18.244;2024-01-30T12:31:31;101785.26;;;2.79;100.00
19789;BME280;10054;59.332;18.244;2024-01-30T12:34:02;101778.23;;;2.85;100.00
19789;BME280;10054;59.332;18.244;2024-01-30T12:36:31;101774.25;;;2.91;100.00
19789;BME280;10054;59.332;18.244;2024-01-30T12:39:00;101756.39;;;2.95;100.00
19789;BME280;10054;59.332;18.244;2024-01-30T12:41:30;101754.09;;;3.03;100.00
19789;BME280;10054;59.332;18.244;2024-01-30T12:44:00;101754.06;;;3.04;100.00
19789;BME280;10054;59.332;18.244;2024-01-30T12:46:29;101750.83;;;3.18;100.00
19789;BME280;10054;59.332;18.244;2024-01-30T12:48:58;101755.47;;;3.28;100.00
19789;BME280;10054;59.332;18.244;2024-01-30T12:51:26;101761.17;;;3.24;100.00